createdAt,value
2023-01-19T00:00:53.896Z,36.60
2023-01-19T00:03:21.920Z,38.20
2023-01-19T00:05:49.202Z,46.40
2023-01-19T00:08:17.166Z,36.80
2023-01-19T00:10:46.485Z,33.60
2023-01-19T00:13:14.999Z,33.20
2023-01-19T00:15:42.157Z,41.80
2023-01-19T00:18:10.835Z,46.80
2023-01-19T00:20:39.247Z,45.00
2023-01-19T00:23:08.411Z,28.80
2023-01-19T00:25:36.161Z,42.00
2023-01-19T00:28:03.120Z,44.60
2023-01-19T00:30:30.135Z,39.40
2023-01-19T00:32:57.141Z,36.20
2023-01-19T00:35:24.332Z,50.00
2023-01-19T00:37:51.378Z,37.40
2023-01-19T00:40:18.458Z,39.80
2023-01-19T00:42:46.144Z,43.80
2023-01-19T00:45:24.355Z,36.20
2023-01-19T00:47:57.224Z,38.60
2023-01-19T00:50:29.624Z,45.60
2023-01-19T00:52:58.056Z,47.00
2023-01-19T00:55:25.141Z,35.00
2023-01-19T00:57:52.055Z,39.80
2023-01-19T01:00:20.157Z,41.20
2023-01-19T01:02:48.299Z,39.00
2023-01-19T01:05:16.351Z,40.20
2023-01-19T01:07:45.492Z,35.20
2023-01-19T01:10:16.881Z,41.60
2023-01-19T01:12:55.954Z,35.60
2023-01-19T01:15:31.087Z,42.40
2023-01-19T01:17:58.059Z,40.00
2023-01-19T01:20:28.158Z,34.40
2023-01-19T01:22:56.463Z,39.20
2023-01-19T01:25:25.109Z,34.80
2023-01-19T01:27:52.674Z,49.00
2023-01-19T01:30:20.516Z,43.60
2023-01-19T01:32:47.474Z,44.40
2023-01-19T01:35:15.024Z,41.40
2023-01-19T01:37:43.190Z,40.20
2023-01-19T01:40:13.455Z,45.60
2023-01-19T01:42:40.773Z,36.80
2023-01-19T01:45:38.537Z,43.60
2023-01-19T01:48:10.704Z,42.20
2023-01-19T01:51:04.111Z,35.20
2023-01-19T01:53:34.141Z,35.40
2023-01-19T01:56:04.778Z,46.00
2023-01-19T01:58:33.155Z,48.40
2023-01-19T02:01:18.611Z,39.00
2023-01-19T02:03:46.014Z,33.80
2023-01-19T02:06:14.842Z,45.20
2023-01-19T02:09:00.297Z,36.00
2023-01-19T02:11:47.638Z,36.40
2023-01-19T02:14:22.127Z,41.40
2023-01-19T02:16:49.491Z,35.60
2023-01-19T02:19:24.341Z,55.80
2023-01-19T02:22:23.975Z,44.40
2023-01-19T02:24:52.114Z,33.80
2023-01-19T02:27:20.429Z,46.00
2023-01-19T02:29:50.084Z,39.20
2023-01-19T02:32:19.897Z,38.60
2023-01-19T02:34:49.951Z,40.00
2023-01-19T02:37:21.740Z,46.60
2023-01-19T02:40:06.813Z,32.60
2023-01-19T02:42:40.085Z,39.00
2023-01-19T02:45:09.845Z,36.60
2023-01-19T02:47:43.534Z,29.80
2023-01-19T02:50:46.264Z,38.20
2023-01-19T02:53:30.706Z,38.80
2023-01-19T02:56:11.432Z,39.40
2023-01-19T02:59:05.055Z,37.80
2023-01-19T03:01:57.273Z,45.80
2023-01-19T03:04:29.285Z,42.20
2023-01-19T03:07:03.742Z,42.60
2023-01-19T03:09:58.304Z,46.40
2023-01-19T03:12:44.818Z,40.20
2023-01-19T03:15:29.178Z,40.80
2023-01-19T03:18:01.011Z,38.20
2023-01-19T03:20:29.532Z,45.20
2023-01-19T03:23:04.737Z,38.20
2023-01-19T03:25:37.506Z,37.80
2023-01-19T03:28:05.260Z,43.20
2023-01-19T03:30:39.354Z,38.60
2023-01-19T03:33:15.623Z,44.60
2023-01-19T03:35:52.258Z,45.60
2023-01-19T03:38:25.783Z,33.40
2023-01-19T03:41:01.865Z,35.60
2023-01-19T03:43:34.937Z,33.00
2023-01-19T03:46:09.503Z,43.40
2023-01-19T03:48:40.597Z,34.20
2023-01-19T03:51:11.272Z,35.00
2023-01-19T03:53:38.753Z,39.40
2023-01-19T03:56:09.800Z,40.20
2023-01-19T03:58:39.823Z,45.60
2023-01-19T04:01:07.179Z,34.40
2023-01-19T04:03:34.458Z,41.60
2023-01-19T04:06:01.678Z,39.80
2023-01-19T04:08:29.024Z,35.20
2023-01-19T04:10:58.146Z,40.00
2023-01-19T04:13:30.286Z,41.80
2023-01-19T04:16:07.187Z,39.40
2023-01-19T04:18:35.004Z,40.80
2023-01-19T04:21:03.820Z,43.40
2023-01-19T04:23:34.131Z,38.40
2023-01-19T04:26:08.283Z,35.40
2023-01-19T04:28:37.427Z,45.40
2023-01-19T04:31:06.154Z,39.20
2023-01-19T04:33:34.089Z,39.20
2023-01-19T04:36:02.254Z,34.80
2023-01-19T04:38:31.218Z,47.60
2023-01-19T04:40:58.415Z,39.60
2023-01-19T04:43:25.676Z,51.40
2023-01-19T04:45:53.150Z,45.80
2023-01-19T04:48:20.568Z,36.60
2023-01-19T04:50:47.833Z,51.20
2023-01-19T04:53:18.738Z,38.20
2023-01-19T04:55:46.955Z,36.00
2023-01-19T04:58:14.456Z,38.20
2023-01-19T05:00:41.673Z,36.00
2023-01-19T05:03:11.367Z,36.80
2023-01-19T05:05:38.836Z,36.40
2023-01-19T05:08:09.144Z,36.40
2023-01-19T05:10:36.872Z,37.40
2023-01-19T05:13:04.582Z,35.60
2023-01-19T05:15:31.705Z,39.80
2023-01-19T05:17:58.920Z,41.60
2023-01-19T05:20:26.247Z,35.80
2023-01-19T05:22:53.852Z,35.60
2023-01-19T05:25:21.341Z,34.60
2023-01-19T05:27:48.757Z,50.20
2023-01-19T05:30:19.598Z,41.60
2023-01-19T05:32:46.925Z,42.00
2023-01-19T05:35:15.396Z,38.20
2023-01-19T05:37:44.661Z,44.40
2023-01-19T05:40:33.649Z,52.20
2023-01-19T05:43:02.608Z,32.00
2023-01-19T05:45:29.825Z,42.60
2023-01-19T05:47:57.435Z,44.20
2023-01-19T05:50:24.595Z,36.60
2023-01-19T05:52:53.573Z,40.80
2023-01-19T05:55:22.545Z,46.20
2023-01-19T05:57:49.723Z,46.80
2023-01-19T06:00:17.076Z,40.60
2023-01-19T06:02:44.386Z,38.80
2023-01-19T06:05:11.520Z,43.00
2023-01-19T06:07:38.575Z,35.20
2023-01-19T06:10:39.663Z,54.80
2023-01-19T06:13:07.255Z,41.60
2023-01-19T06:15:34.541Z,46.20
2023-01-19T06:18:01.785Z,42.20
2023-01-19T06:20:29.117Z,42.00
2023-01-19T06:22:59.453Z,40.80
2023-01-19T06:25:26.799Z,43.00
2023-01-19T06:27:54.258Z,40.60
2023-01-19T06:30:21.584Z,33.60
2023-01-19T06:32:48.777Z,45.00
2023-01-19T06:35:16.041Z,40.40
2023-01-19T06:37:43.175Z,44.40
2023-01-19T06:40:12.464Z,52.40
2023-01-19T06:42:40.487Z,40.80
2023-01-19T06:45:09.942Z,39.00
2023-01-19T06:47:37.852Z,29.00
2023-01-19T06:50:05.261Z,46.60
2023-01-19T06:52:42.769Z,47.20
2023-01-19T06:55:11.425Z,54.00
2023-01-19T06:57:39.272Z,52.00
2023-01-19T07:00:09.226Z,44.00
2023-01-19T07:02:37.442Z,34.80
2023-01-19T07:05:07.282Z,40.40
2023-01-19T07:07:34.368Z,33.20
2023-01-19T07:10:01.539Z,37.40
2023-01-19T07:12:31.601Z,42.80
2023-01-19T07:14:58.696Z,33.40
2023-01-19T07:17:28.773Z,41.60
2023-01-19T07:19:56.032Z,37.40
2023-01-19T07:22:23.330Z,49.40
2023-01-19T07:24:50.632Z,33.00
2023-01-19T07:27:18.177Z,40.60
2023-01-19T07:29:45.568Z,45.40
2023-01-19T07:32:13.280Z,33.00
2023-01-19T07:34:40.671Z,36.80
2023-01-19T07:37:08.058Z,34.60
2023-01-19T07:39:36.891Z,41.00
2023-01-19T07:42:04.616Z,36.20
2023-01-19T07:44:31.844Z,47.80
2023-01-19T07:46:59.946Z,41.20
2023-01-19T07:50:05.837Z,43.80
2023-01-19T07:52:32.959Z,39.20
2023-01-19T07:55:00.123Z,40.00
2023-01-19T07:57:30.088Z,40.40
2023-01-19T07:59:57.005Z,54.00
2023-01-19T08:02:24.180Z,37.80
2023-01-19T08:04:51.027Z,48.60
2023-01-19T08:07:18.348Z,39.60
2023-01-19T08:09:45.197Z,44.20
2023-01-19T08:12:12.563Z,37.40
2023-01-19T08:14:48.898Z,35.00
2023-01-19T08:17:15.900Z,43.60
2023-01-19T08:19:43.585Z,40.20
2023-01-19T08:22:10.575Z,40.80
2023-01-19T08:24:37.659Z,38.60
2023-01-19T08:27:05.088Z,45.20
2023-01-19T08:29:33.959Z,46.00
2023-01-19T08:32:02.984Z,44.40
2023-01-19T08:34:31.208Z,33.80
2023-01-19T08:36:58.972Z,40.80
2023-01-19T08:39:25.961Z,41.20
2023-01-19T08:41:52.868Z,47.60
2023-01-19T08:44:19.903Z,37.00
2023-01-19T08:46:47.481Z,34.20
2023-01-19T08:49:14.386Z,34.40
2023-01-19T08:51:41.337Z,36.20
2023-01-19T08:54:08.203Z,37.00
2023-01-19T08:56:35.042Z,51.80
2023-01-19T08:59:11.877Z,43.80
2023-01-19T09:01:41.523Z,45.40
2023-01-19T09:04:08.675Z,45.00
2023-01-19T09:06:35.576Z,34.80
2023-01-19T09:09:02.773Z,32.40
2023-01-19T09:11:31.200Z,34.00
2023-01-19T09:13:57.945Z,50.60
2023-01-19T09:16:27.217Z,38.40
2023-01-19T09:18:54.416Z,33.60
2023-01-19T09:21:21.285Z,46.20
2023-01-19T09:23:49.634Z,41.00
2023-01-19T09:26:16.779Z,42.20
2023-01-19T09:28:43.705Z,44.40
2023-01-19T09:31:10.842Z,37.40
2023-01-19T09:33:38.043Z,35.60
2023-01-19T09:36:05.111Z,43.20
2023-01-19T09:38:33.156Z,44.40
2023-01-19T09:41:01.373Z,52.40
2023-01-19T09:43:54.643Z,44.20
2023-01-19T09:46:30.349Z,31.40
2023-01-19T09:48:59.764Z,38.20
2023-01-19T09:51:35.085Z,39.60
2023-01-19T09:54:17.228Z,38.80
2023-01-19T09:56:46.156Z,45.00
2023-01-19T09:59:23.917Z,39.80
2023-01-19T10:02:23.872Z,54.40
2023-01-19T10:05:14.993Z,48.20
2023-01-19T10:08:03.947Z,36.40
2023-01-19T10:10:41.205Z,35.80
2023-01-19T10:13:44.870Z,39.20
2023-01-19T10:16:31.693Z,38.00
2023-01-19T10:19:13.073Z,51.00
2023-01-19T10:21:44.863Z,40.40
2023-01-19T10:24:20.388Z,39.80
2023-01-19T10:26:51.696Z,41.80
2023-01-19T10:29:34.905Z,31.40
2023-01-19T10:32:09.115Z,42.60
2023-01-19T10:34:36.952Z,46.20
2023-01-19T10:37:17.562Z,43.80
2023-01-19T10:39:54.055Z,36.20
2023-01-19T10:42:21.240Z,36.20
2023-01-19T10:44:49.809Z,46.40
2023-01-19T10:47:19.265Z,58.40
2023-01-19T10:49:48.145Z,39.20
2023-01-19T10:52:32.127Z,47.20
2023-01-19T10:55:00.673Z,39.60
2023-01-19T10:57:38.420Z,37.20
2023-01-19T11:00:08.102Z,40.80
2023-01-19T11:02:35.144Z,34.80
2023-01-19T11:05:31.857Z,52.40
2023-01-19T11:07:59.136Z,44.40
2023-01-19T11:10:28.171Z,49.60
2023-01-19T11:13:12.704Z,36.40
2023-01-19T11:15:55.045Z,43.00
2023-01-19T11:18:30.115Z,36.60
2023-01-19T11:21:02.433Z,46.80
2023-01-19T11:23:44.163Z,44.80
2023-01-19T11:26:16.479Z,55.40
2023-01-19T11:28:48.596Z,55.00
2023-01-19T11:31:15.425Z,42.80
2023-01-19T11:33:43.544Z,45.00
2023-01-19T11:36:21.906Z,43.80
2023-01-19T11:38:51.387Z,36.20
2023-01-19T11:41:20.025Z,39.60
2023-01-19T11:43:51.827Z,39.60
2023-01-19T11:46:19.272Z,35.20
2023-01-19T11:49:02.535Z,41.60
2023-01-19T11:52:04.844Z,41.40
2023-01-19T11:54:47.682Z,46.40
2023-01-19T11:57:17.371Z,51.80
2023-01-19T11:59:44.647Z,47.40
2023-01-19T12:02:24.596Z,58.00
2023-01-19T12:04:58.026Z,47.20
2023-01-19T12:07:30.673Z,49.20
2023-01-19T12:10:25.401Z,43.00
2023-01-19T12:12:53.744Z,38.60
2023-01-19T12:15:28.144Z,37.80
2023-01-19T12:18:00.966Z,49.20
2023-01-19T12:20:41.875Z,42.00
2023-01-19T12:23:11.829Z,38.00
2023-01-19T12:26:04.343Z,49.60
2023-01-19T12:28:35.163Z,48.60
2023-01-19T12:31:04.049Z,40.40
2023-01-19T12:33:40.630Z,49.40
2023-01-19T12:36:41.395Z,45.40
2023-01-19T12:39:19.936Z,40.00
2023-01-19T12:41:47.685Z,38.60
2023-01-19T12:44:20.315Z,49.20
2023-01-19T12:46:50.221Z,42.60
2023-01-19T12:49:40.603Z,42.60
2023-01-19T12:52:20.965Z,41.00
2023-01-19T12:54:57.587Z,67.20
2023-01-19T12:57:56.717Z,54.60
2023-01-19T13:00:23.611Z,45.00
2023-01-19T13:02:53.897Z,43.20
2023-01-19T13:05:46.026Z,39.20
2023-01-19T13:08:13.440Z,38.20
2023-01-19T13:11:12.765Z,42.20
2023-01-19T13:13:48.919Z,49.60
2023-01-19T13:16:18.894Z,38.80
2023-01-19T13:18:48.966Z,40.00
2023-01-19T13:21:36.090Z,43.40
2023-01-19T13:24:08.402Z,90.20
2023-01-19T13:26:42.840Z,108.20
2023-01-19T13:29:17.186Z,118.25
2023-01-19T13:31:46.048Z,88.40
2023-01-19T13:34:17.673Z,71.40
2023-01-19T13:36:47.040Z,59.60
2023-01-19T13:39:18.338Z,49.60
2023-01-19T13:41:47.320Z,67.40
2023-01-19T13:44:21.991Z,68.60
2023-01-19T13:46:50.520Z,57.60
2023-01-19T13:49:29.848Z,43.20
2023-01-19T13:52:21.268Z,43.20
2023-01-19T13:54:53.173Z,47.40
2023-01-19T13:57:23.431Z,48.60
2023-01-19T14:00:12.114Z,41.80
2023-01-19T14:02:42.718Z,45.20
2023-01-19T14:05:21.901Z,38.60
2023-01-19T14:07:48.995Z,43.40
2023-01-19T14:10:16.988Z,59.20
2023-01-19T14:12:58.642Z,53.00
2023-01-19T14:15:26.940Z,47.00
2023-01-19T14:18:10.363Z,34.00
2023-01-19T14:20:37.896Z,41.20
2023-01-19T14:23:06.825Z,39.00
2023-01-19T14:25:36.411Z,37.80
2023-01-19T14:28:28.737Z,67.60
2023-01-19T14:31:01.604Z,70.60
2023-01-19T14:33:48.125Z,42.80
2023-01-19T14:36:17.571Z,46.60
2023-01-19T14:38:46.324Z,63.40
2023-01-19T14:41:40.930Z,41.40
2023-01-19T14:44:10.715Z,54.00
2023-01-19T14:46:38.796Z,39.80
2023-01-19T14:49:06.828Z,33.20
2023-01-19T14:51:33.977Z,38.00
2023-01-19T14:54:02.993Z,54.20
2023-01-19T14:56:32.760Z,36.80
2023-01-19T14:59:01.683Z,38.80
2023-01-19T15:01:29.134Z,38.60
2023-01-19T15:03:57.071Z,58.20
2023-01-19T15:06:26.269Z,47.60
2023-01-19T15:08:54.404Z,51.40
2023-01-19T15:11:30.140Z,81.60
2023-01-19T15:13:57.612Z,95.80
2023-01-19T15:16:25.365Z,132.50
2023-01-19T15:18:52.922Z,99.80
2023-01-19T15:21:23.624Z,91.80
2023-01-19T15:23:50.771Z,109.80
2023-01-19T15:26:20.907Z,98.60
2023-01-19T15:28:49.753Z,87.40
2023-01-19T15:31:19.557Z,82.00
2023-01-19T15:33:46.555Z,58.60
2023-01-19T15:36:19.172Z,65.60
2023-01-19T15:38:47.068Z,44.00
2023-01-19T15:41:18.571Z,55.80
2023-01-19T15:43:45.514Z,65.80
2023-01-19T15:46:16.038Z,87.40
2023-01-19T15:48:43.074Z,114.00
2023-01-19T15:51:15.096Z,95.40
2023-01-19T15:53:42.561Z,123.60
2023-01-19T15:56:16.647Z,62.40
2023-01-19T15:58:43.805Z,63.20
2023-01-19T16:01:17.764Z,60.80
2023-01-19T16:03:45.381Z,56.60
2023-01-19T16:06:13.017Z,67.20
2023-01-19T16:08:40.031Z,50.00
2023-01-19T16:11:12.600Z,44.60
2023-01-19T16:13:40.092Z,51.60
2023-01-19T16:16:18.955Z,36.80
2023-01-19T16:18:46.278Z,51.00
2023-01-19T16:21:13.163Z,45.00
2023-01-19T16:23:40.172Z,40.40
2023-01-19T16:26:23.041Z,33.00
2023-01-19T16:28:49.887Z,47.60
2023-01-19T16:31:16.965Z,38.20
2023-01-19T16:33:45.390Z,37.40
2023-01-19T16:36:30.563Z,30.00
2023-01-19T16:39:26.840Z,36.60
2023-01-19T16:41:53.748Z,31.00
2023-01-19T16:44:20.592Z,45.60
2023-01-19T16:46:49.944Z,36.20
2023-01-19T16:49:22.577Z,33.20
2023-01-19T16:51:50.779Z,57.20
2023-01-19T16:54:20.592Z,40.00
2023-01-19T16:56:48.733Z,37.20
2023-01-19T16:59:17.035Z,34.60
2023-01-19T17:01:45.571Z,37.40
2023-01-19T17:04:13.566Z,32.80
2023-01-19T17:06:40.922Z,47.60
2023-01-19T17:09:09.579Z,33.20
2023-01-19T17:11:36.854Z,43.60
2023-01-19T17:14:21.945Z,36.60
2023-01-19T17:16:49.424Z,74.20
2023-01-19T17:19:18.964Z,58.60
2023-01-19T17:21:48.863Z,47.60
2023-01-19T17:24:16.704Z,42.80
2023-01-19T17:26:46.081Z,37.60
2023-01-19T17:29:12.885Z,38.60
2023-01-19T17:31:39.825Z,39.60
2023-01-19T17:34:07.242Z,56.20
2023-01-19T17:36:34.205Z,40.00
2023-01-19T17:39:06.153Z,36.40
2023-01-19T17:41:35.444Z,52.80
2023-01-19T17:44:04.012Z,36.60
2023-01-19T17:46:31.115Z,37.80
2023-01-19T17:49:01.904Z,44.80
2023-01-19T17:51:30.241Z,31.00
2023-01-19T17:53:58.039Z,41.60
2023-01-19T17:56:29.794Z,51.00
2023-01-19T17:58:58.266Z,34.00
2023-01-19T18:01:28.607Z,33.00
2023-01-19T18:03:55.991Z,32.60
2023-01-19T18:06:23.108Z,34.00
2023-01-19T18:08:50.677Z,30.60
2023-01-19T18:11:19.814Z,36.40
2023-01-19T18:13:48.894Z,33.60
2023-01-19T18:16:20.663Z,39.20
2023-01-19T18:18:49.877Z,34.40
2023-01-19T18:21:17.933Z,32.00
2023-01-19T18:23:46.069Z,37.40
2023-01-19T18:26:15.533Z,47.40
2023-01-19T18:28:42.436Z,46.40
2023-01-19T18:31:12.311Z,40.80
2023-01-19T18:33:40.253Z,40.80
2023-01-19T18:36:08.207Z,31.00
2023-01-19T18:38:36.543Z,34.80
2023-01-19T18:41:06.189Z,34.00
2023-01-19T18:43:33.371Z,33.20
2023-01-19T18:46:00.529Z,40.00
2023-01-19T18:48:27.666Z,35.20
2023-01-19T18:50:54.997Z,35.40
2023-01-19T18:53:22.264Z,40.60
2023-01-19T18:55:58.048Z,30.80
2023-01-19T18:58:28.765Z,41.20
2023-01-19T19:01:00.177Z,35.80
2023-01-19T19:03:27.450Z,33.00
2023-01-19T19:05:54.540Z,40.80
2023-01-19T19:08:21.497Z,36.00
2023-01-19T19:10:48.531Z,37.00
2023-01-19T19:13:17.426Z,40.80
2023-01-19T19:15:44.635Z,36.80
2023-01-19T19:18:14.202Z,33.20
2023-01-19T19:20:43.386Z,34.40
2023-01-19T19:23:11.767Z,41.40
2023-01-19T19:25:38.690Z,41.60
2023-01-19T19:28:05.748Z,34.80
2023-01-19T19:30:35.033Z,36.60
2023-01-19T19:33:02.006Z,51.60
2023-01-19T19:35:29.144Z,53.20
2023-01-19T19:37:57.849Z,40.80
2023-01-19T19:40:28.527Z,36.60
2023-01-19T19:42:58.422Z,39.80
2023-01-19T19:45:25.764Z,42.00
2023-01-19T19:47:52.568Z,38.40
2023-01-19T19:50:19.620Z,38.20
2023-01-19T19:52:46.555Z,43.40
2023-01-19T19:55:13.862Z,33.00
2023-01-19T19:57:40.968Z,36.60
2023-01-19T20:00:08.993Z,40.60
2023-01-19T20:02:36.333Z,45.60
2023-01-19T20:05:03.508Z,31.20
2023-01-19T20:07:30.680Z,39.80
2023-01-19T20:09:57.600Z,42.20
2023-01-19T20:12:24.553Z,40.20
2023-01-19T20:14:51.353Z,62.20
2023-01-19T20:17:19.366Z,45.80
2023-01-19T20:19:47.728Z,45.00
2023-01-19T20:22:15.397Z,41.40
2023-01-19T20:24:42.706Z,45.00
2023-01-19T20:27:09.750Z,39.80
2023-01-19T20:29:36.702Z,33.80
2023-01-19T20:32:03.591Z,34.00
2023-01-19T20:34:33.470Z,38.40
2023-01-19T20:37:01.912Z,45.80
2023-01-19T20:39:30.304Z,40.00
2023-01-19T20:41:57.157Z,53.40
2023-01-19T20:44:25.886Z,49.40
2023-01-19T20:46:54.428Z,38.00
2023-01-19T20:49:21.822Z,35.00
2023-01-19T20:51:50.062Z,37.60
2023-01-19T20:54:18.857Z,42.80
2023-01-19T20:56:45.766Z,33.20
2023-01-19T20:59:13.015Z,39.60
2023-01-19T21:01:41.044Z,46.40
2023-01-19T21:04:08.765Z,40.00
2023-01-19T21:06:36.114Z,39.80
2023-01-19T21:09:03.136Z,34.20
2023-01-19T21:11:30.066Z,37.60
2023-01-19T21:13:56.885Z,53.60
2023-01-19T21:16:25.875Z,36.00
2023-01-19T21:18:53.333Z,40.60
2023-01-19T21:21:29.858Z,39.20
2023-01-19T21:23:59.459Z,41.40
2023-01-19T21:26:26.374Z,36.60
2023-01-19T21:28:53.224Z,41.20
2023-01-19T21:31:23.145Z,40.00
2023-01-19T21:33:53.988Z,48.40
2023-01-19T21:36:22.710Z,33.00
2023-01-19T21:38:51.614Z,28.00
2023-01-19T21:41:18.849Z,36.40
2023-01-19T21:43:46.447Z,41.60
2023-01-19T21:46:18.647Z,38.40
2023-01-19T21:48:46.238Z,35.20
2023-01-19T21:51:14.854Z,66.20
2023-01-19T21:53:42.159Z,58.20
2023-01-19T21:56:10.243Z,39.20
2023-01-19T21:58:37.822Z,42.00
2023-01-19T22:01:09.841Z,44.00
2023-01-19T22:03:36.659Z,44.40
2023-01-19T22:06:05.925Z,49.00
2023-01-19T22:08:33.751Z,6.80
2023-01-19T22:11:08.174Z,37.80
2023-01-19T22:13:36.416Z,36.40
2023-01-19T22:16:04.849Z,37.80
2023-01-19T22:18:31.751Z,40.20
2023-01-19T22:21:11.364Z,35.80
2023-01-19T22:23:38.825Z,31.80
2023-01-19T22:26:06.259Z,36.00
2023-01-19T22:28:33.755Z,47.40
2023-01-19T22:31:15.495Z,36.60
2023-01-19T22:33:43.401Z,38.60
2023-01-19T22:36:20.121Z,41.20
2023-01-19T22:38:52.383Z,37.60
2023-01-19T22:41:25.585Z,33.80
2023-01-19T22:43:57.656Z,36.20
2023-01-19T22:46:26.678Z,38.80
2023-01-19T22:48:54.433Z,31.80
2023-01-19T22:51:22.943Z,31.80
2023-01-19T22:53:49.740Z,36.00
2023-01-19T22:56:19.525Z,36.00
2023-01-19T22:58:47.307Z,41.40
2023-01-19T23:01:17.538Z,35.40
2023-01-19T23:03:44.419Z,32.00
2023-01-19T23:06:17.303Z,41.80
2023-01-19T23:08:44.808Z,35.80
2023-01-19T23:11:15.439Z,35.80
2023-01-19T23:13:43.019Z,45.60
2023-01-19T23:16:11.191Z,33.00
2023-01-19T23:18:38.503Z,33.20
2023-01-19T23:21:09.487Z,36.00
2023-01-19T23:23:36.769Z,34.00
2023-01-19T23:26:07.218Z,33.80
2023-01-19T23:28:34.633Z,35.60
2023-01-19T23:31:12.579Z,39.60
2023-01-19T23:33:39.707Z,34.00
2023-01-19T23:36:06.917Z,39.00
2023-01-19T23:38:33.778Z,41.80
2023-01-19T23:41:00.591Z,33.40
2023-01-19T23:43:27.374Z,39.00
2023-01-19T23:45:54.280Z,37.40
2023-01-19T23:48:21.112Z,44.40
2023-01-19T23:50:47.906Z,39.00
2023-01-19T23:53:14.718Z,44.80
2023-01-19T23:55:42.098Z,38.20
2023-01-19T23:58:09.010Z,35.60
